Time;durP1;ratioP1;P1;durP2;ratioP2;P2;SDS_P1;SDS_P2;PMS_P1;PMS_P2;Temp;Humidity;BMP_temperature;BMP_pressure;BME280_temperature;BME280_humidity;BME280_pressure;Samples;Min_cycle;Max_cycle;Signal;HPM_P1;HPM_P2
2022/07/18 00:01:20;;;;;;;6.30;3.20;;;14.30;99.90;;;;;;4998584;28;20198;-50
2022/07/18 00:03:47;;;;;;;3.95;2.75;;;14.30;99.90;;;;;;5005441;28;20288;-50
2022/07/18 00:06:14;;;;;;;2.65;2.10;;;14.30;99.90;;;;;;5007357;28;20209;-52
2022/07/18 00:08:42;;;;;;;7.40;2.28;;;14.30;99.90;;;;;;5007966;28;20217;-51
2022/07/18 00:11:09;;;;;;;3.47;2.58;;;14.30;99.90;;;;;;5018122;28;20215;-51
2022/07/18 00:13:37;;;;;;;4.43;2.70;;;14.30;99.90;;;;;;5015892;28;20229;-52
2022/07/18 00:16:05;;;;;;;3.60;3.03;;;14.30;99.90;;;;;;5002905;28;20202;-49
2022/07/18 00:18:33;;;;;;;4.35;2.35;;;14.20;99.90;;;;;;5002317;28;20225;-49
2022/07/18 00:21:00;;;;;;;4.55;2.50;;;14.20;99.90;;;;;;5008398;28;20366;-48
2022/07/18 00:23:27;;;;;;;3.08;2.78;;;14.20;99.90;;;;;;5012329;28;20308;-47
2022/07/18 00:25:54;;;;;;;8.48;3.60;;;14.20;99.90;;;;;;5013105;28;20202;-50
2022/07/18 00:28:22;;;;;;;2.97;2.33;;;14.10;99.90;;;;;;5001509;28;20201;-52
2022/07/18 00:30:49;;;;;;;3.85;2.72;;;14.10;99.90;;;;;;5002335;28;20517;-53
2022/07/18 00:33:17;;;;;;;2.30;2.20;;;14.10;99.90;;;;;;5002014;28;20240;-47
2022/07/18 00:35:44;;;;;;;4.55;2.40;;;14.10;99.90;;;;;;4985411;28;20202;-47
2022/07/18 00:38:11;;;;;;;10.75;3.65;;;14.10;99.90;;;;;;5002431;28;20236;-49
2022/07/18 00:40:39;;;;;;;5.95;2.60;;;14.10;99.90;;;;;;5002094;28;20496;-51
2022/07/18 00:43:06;;;;;;;5.65;2.50;;;14.00;99.90;;;;;;5002075;28;20235;-49
2022/07/18 00:45:37;;;;;;;2.70;2.50;;;14.00;99.90;;;;;;5012520;28;20268;-51
2022/07/18 00:48:06;;;;;;;4.38;2.42;;;13.90;99.90;;;;;;5010613;28;20304;-50
2022/07/18 00:50:34;;;;;;;9.05;2.33;;;13.90;99.90;;;;;;5002204;28;20206;-53
2022/07/18 00:53:01;;;;;;;5.90;2.85;;;13.90;99.90;;;;;;5002244;28;20230;-51
2022/07/18 00:55:28;;;;;;;2.55;2.05;;;13.80;99.90;;;;;;5001718;28;20212;-52
2022/07/18 00:57:57;;;;;;;4.43;2.33;;;13.70;99.90;;;;;;5003170;28;20241;-53
2022/07/18 01:03:11;;;;;;;3.42;2.53;;;13.70;99.90;;;;;;5002079;28;20326;-53
2022/07/18 01:05:38;;;;;;;7.88;2.67;;;13.80;99.90;;;;;;5001579;28;20377;-52
2022/07/18 01:08:05;;;;;;;4.57;3.17;;;13.80;99.90;;;;;;5002115;28;20217;-51
2022/07/18 01:10:32;;;;;;;7.35;2.55;;;13.80;99.90;;;;;;5001662;28;20216;-52
2022/07/18 01:13:00;;;;;;;4.75;2.75;;;13.80;99.90;;;;;;5001712;28;20244;-52
2022/07/18 01:15:28;;;;;;;4.18;2.33;;;13.50;99.90;;;;;;5001448;28;20209;-51
2022/07/18 01:17:56;;;;;;;7.93;3.20;;;13.40;99.90;;;;;;5001625;28;20236;-49
2022/07/18 01:20:30;;;;;;;2.90;2.70;;;13.40;99.90;;;;;;5001124;28;20197;-48
2022/07/18 01:22:58;;;;;;;2.50;2.30;;;13.50;99.90;;;;;;5001130;28;20532;-52
2022/07/18 01:25:27;;;;;;;4.75;2.40;;;13.60;99.90;;;;;;5001153;28;20198;-51
2022/07/18 01:27:56;;;;;;;5.25;2.58;;;13.60;99.90;;;;;;5001426;28;20395;-53
2022/07/18 01:30:24;;;;;;;3.38;2.53;;;13.60;99.90;;;;;;5000975;28;20207;-52
2022/07/18 01:33:00;;;;;;;4.70;2.80;;;13.60;99.90;;;;;;5000946;28;20407;-52
2022/07/18 01:35:29;;;;;;;3.20;2.22;;;13.50;99.90;;;;;;5000877;28;20755;-50
2022/07/18 01:37:58;;;;;;;12.88;3.38;;;13.50;99.90;;;;;;5000642;28;20356;-52
2022/07/18 01:40:26;;;;;;;3.47;2.20;;;13.40;99.90;;;;;;5000748;28;20419;-53
2022/07/18 01:42:53;;;;;;;6.00;2.60;;;13.40;99.90;;;;;;5000802;28;20535;-54
2022/07/18 01:45:21;;;;;;;5.88;2.70;;;13.40;99.90;;;;;;5001211;28;20197;-54
2022/07/18 01:47:49;;;;;;;3.17;2.33;;;13.30;99.90;;;;;;4998452;28;20463;-52
2022/07/18 01:50:17;;;;;;;7.40;3.03;;;13.30;99.90;;;;;;5001014;28;20201;-52
2022/07/18 01:52:44;;;;;;;4.68;2.30;;;13.40;99.90;;;;;;5000600;28;20281;-54
2022/07/18 01:55:12;;;;;;;4.90;2.60;;;13.40;99.90;;;;;;4998570;28;20264;-53
2022/07/18 01:57:39;;;;;;;10.88;3.95;;;13.30;99.90;;;;;;5000605;28;20497;-54
2022/07/18 02:00:09;;;;;;;5.15;2.35;;;13.40;99.90;;;;;;5000714;28;20225;-51
2022/07/18 02:02:37;;;;;;;2.88;2.38;;;13.30;99.90;;;;;;5000976;28;20197;-52
2022/07/18 02:05:05;;;;;;;3.88;2.10;;;13.40;99.90;;;;;;5000491;28;20198;-49
2022/07/18 02:07:37;;;;;;;6.13;2.72;;;13.40;99.90;;;;;;5000783;28;20377;-52
2022/07/18 02:10:08;;;;;;;3.60;3.28;;;13.40;99.90;;;;;;5000486;28;20206;-53
2022/07/18 02:12:37;;;;;;;6.50;3.33;;;13.30;99.90;;;;;;5000609;28;20213;-52
2022/07/18 02:15:06;;;;;;;4.53;3.13;;;13.20;99.90;;;;;;5000485;28;20232;-52
2022/07/18 02:17:34;;;;;;;5.85;2.80;;;13.20;99.90;;;;;;5000365;28;20223;-53
2022/07/18 02:20:02;;;;;;;4.75;3.20;;;13.20;99.90;;;;;;5000361;28;20500;-54
2022/07/18 02:22:29;;;;;;;3.03;2.55;;;13.20;99.90;;;;;;4998261;28;20211;-54
2022/07/18 02:24:56;;;;;;;6.78;2.92;;;13.20;99.90;;;;;;5000463;28;20238;-54
2022/07/18 02:27:24;;;;;;;3.80;2.17;;;13.30;99.90;;;;;;4999826;28;20205;-52
2022/07/18 02:29:52;;;;;;;4.38;3.38;;;13.30;99.90;;;;;;5000578;28;20208;-54
2022/07/18 02:32:19;;;;;;;7.35;3.30;;;13.40;99.90;;;;;;5000209;28;20201;-52
2022/07/18 02:34:46;;;;;;;4.60;2.70;;;13.40;99.90;;;;;;4992498;28;20221;-49
2022/07/18 02:37:14;;;;;;;2.60;1.90;;;13.40;99.90;;;;;;4999894;28;20201;-54
2022/07/18 02:39:41;;;;;;;3.80;2.95;;;13.40;99.90;;;;;;5000070;28;20233;-52
2022/07/18 02:42:09;;;;;;;3.55;2.13;;;13.50;99.90;;;;;;4999986;28;20439;-52
2022/07/18 02:44:36;;;;;;;2.97;2.42;;;13.50;99.90;;;;;;5000092;28;20548;-54
2022/07/18 02:47:04;;;;;;;3.58;1.85;;;13.50;99.90;;;;;;5000091;28;20213;-54
2022/07/18 02:49:31;;;;;;;2.63;2.42;;;13.50;99.90;;;;;;4999783;28;20448;-52
2022/07/18 02:52:05;;;;;;;3.60;2.65;;;13.30;99.90;;;;;;4999857;28;20276;-50
2022/07/18 02:54:35;;;;;;;3.13;2.10;;;13.30;99.90;;;;;;4999342;28;20320;-50
2022/07/18 02:57:03;;;;;;;6.18;2.45;;;13.40;99.90;;;;;;4999599;28;20276;-54
2022/07/18 02:59:30;;;;;;;2.67;2.47;;;13.50;99.90;;;;;;4999381;28;20233;-54
2022/07/18 03:01:58;;;;;;;3.70;2.35;;;13.50;99.90;;;;;;4999574;28;20204;-54
2022/07/18 03:04:25;;;;;;;3.20;2.42;;;13.50;99.90;;;;;;4999130;28;20225;-51
2022/07/18 03:06:53;;;;;;;3.95;1.90;;;13.60;99.90;;;;;;4991966;28;20201;-53
2022/07/18 03:09:20;;;;;;;4.60;2.53;;;13.50;99.90;;;;;;4999091;28;20202;-53
2022/07/18 03:11:48;;;;;;;2.50;2.30;;;13.50;99.90;;;;;;4998049;28;20221;-51
2022/07/18 03:14:15;;;;;;;3.47;2.95;;;13.50;99.90;;;;;;4998887;28;20221;-51
2022/07/18 03:16:43;;;;;;;4.43;2.83;;;13.60;99.90;;;;;;4999072;28;20309;-54
2022/07/18 03:19:10;;;;;;;2.55;2.35;;;13.70;99.90;;;;;;4999457;28;20268;-53
2022/07/18 03:21:37;;;;;;;11.63;2.72;;;13.70;99.90;;;;;;4999046;28;20216;-50
2022/07/18 03:24:05;;;;;;;4.85;2.33;;;13.70;99.90;;;;;;4999685;28;20217;-53
2022/07/18 03:26:32;;;;;;;7.72;3.45;;;13.80;99.90;;;;;;4999723;28;20197;-54
2022/07/18 03:29:00;;;;;;;3.15;2.08;;;13.90;99.90;;;;;;4993982;28;20209;-51
2022/07/18 03:31:27;;;;;;;3.80;2.33;;;14.00;99.90;;;;;;4998812;28;20193;-49
2022/07/18 03:33:54;;;;;;;2.72;2.53;;;14.00;99.90;;;;;;4998851;28;20543;-52
2022/07/18 03:36:22;;;;;;;2.17;1.98;;;14.00;99.90;;;;;;4998683;28;20272;-49
2022/07/18 03:38:49;;;;;;;4.07;2.53;;;14.00;99.90;;;;;;4998182;28;20229;-50
2022/07/18 03:41:16;;;;;;;3.45;2.45;;;14.20;99.90;;;;;;4998512;28;20515;-47
2022/07/18 03:43:44;;;;;;;5.63;2.53;;;14.30;99.90;;;;;;4998772;28;20217;-49
2022/07/18 03:46:11;;;;;;;5.00;2.35;;;14.40;99.90;;;;;;4998576;28;20208;-51
2022/07/18 03:48:38;;;;;;;4.53;2.15;;;14.50;99.90;;;;;;4998638;28;20210;-48
2022/07/18 03:51:06;;;;;;;6.15;2.42;;;14.60;99.90;;;;;;4993130;28;20205;-48
2022/07/18 03:53:33;;;;;;;6.30;3.17;;;14.70;99.90;;;;;;4998428;28;20436;-51
2022/07/18 03:56:01;;;;;;;4.95;2.30;;;14.80;99.90;;;;;;4998464;28;20205;-51
2022/07/18 03:58:28;;;;;;;6.35;2.42;;;15.00;99.90;;;;;;4998549;28;20210;-49
2022/07/18 04:00:55;;;;;;;7.07;3.33;;;15.00;99.90;;;;;;4998322;28;20199;-47
2022/07/18 04:03:23;;;;;;;4.05;3.40;;;15.10;99.90;;;;;;4998447;28;20281;-53
2022/07/18 04:05:50;;;;;;;3.13;2.83;;;15.30;99.90;;;;;;4998823;28;20222;-47
2022/07/18 04:08:18;;;;;;;3.20;2.30;;;15.40;99.90;;;;;;4998037;28;20217;-49
2022/07/18 04:10:46;;;;;;;2.80;2.60;;;15.60;99.90;;;;;;4998747;28;20283;-51
2022/07/18 04:13:13;;;;;;;7.30;2.65;;;15.70;99.90;;;;;;4995311;28;20222;-50
2022/07/18 04:15:41;;;;;;;5.23;2.27;;;15.70;99.90;;;;;;4999844;28;20204;-50
2022/07/18 04:18:09;;;;;;;5.90;2.42;;;15.80;99.90;;;;;;5003605;28;20449;-45
2022/07/18 04:20:38;;;;;;;2.42;2.00;;;15.90;99.90;;;;;;4998332;28;20235;-49
2022/07/18 04:23:08;;;;;;;2.30;2.10;;;15.80;99.90;;;;;;4981141;28;20220;-48
2022/07/18 04:25:40;;;;;;;4.03;2.33;;;15.90;99.90;;;;;;4996938;28;20234;-48
2022/07/18 04:28:10;;;;;;;6.72;3.47;;;15.90;99.90;;;;;;4997823;28;20204;-49
2022/07/18 04:30:39;;;;;;;3.47;2.40;;;16.00;99.90;;;;;;4997991;28;20215;-48
2022/07/18 04:33:09;;;;;;;3.47;2.77;;;16.20;99.90;;;;;;4995883;28;20704;-50
2022/07/18 04:35:37;;;;;;;2.87;2.63;;;16.30;99.90;;;;;;5009343;28;20460;-53
2022/07/18 04:38:06;;;;;;;6.10;3.27;;;16.30;99.90;;;;;;5005463;28;20580;-52
2022/07/18 04:40:34;;;;;;;4.30;3.00;;;16.20;99.90;;;;;;4998854;28;20506;-50
2022/07/18 04:43:02;;;;;;;7.40;2.17;;;16.10;99.90;;;;;;4998603;28;20467;-51
2022/07/18 04:45:29;;;;;;;5.13;2.77;;;16.40;99.90;;;;;;4997641;28;20547;-49
2022/07/18 04:47:57;;;;;;;5.47;3.07;;;16.60;99.90;;;;;;4998271;28;20506;-52
2022/07/18 04:50:25;;;;;;;3.50;2.80;;;16.80;99.90;;;;;;4998468;28;20721;-53
2022/07/18 04:52:53;;;;;;;3.80;2.90;;;16.80;99.90;;;;;;5002037;28;20437;-52
2022/07/18 04:55:21;;;;;;;4.40;2.20;;;16.90;99.90;;;;;;5001792;28;20441;-49
2022/07/18 04:57:49;;;;;;;4.70;3.07;;;17.10;99.90;;;;;;5001921;28;20458;-53
2022/07/18 05:00:19;;;;;;;3.80;2.70;;;16.90;99.90;;;;;;5001696;28;20979;-49
2022/07/18 05:02:49;;;;;;;2.20;2.00;;;16.90;99.90;;;;;;5000147;28;20435;-47
2022/07/18 05:05:18;;;;;;;2.57;2.20;;;17.10;99.90;;;;;;5001424;28;20578;-49
2022/07/18 05:07:48;;;;;;;3.37;2.90;;;17.40;99.90;;;;;;4995102;28;20523;-48
2022/07/18 05:10:17;;;;;;;3.03;2.83;;;17.40;99.90;;;;;;5001344;28;20683;-51
2022/07/18 05:12:50;;;;;;;6.13;3.03;;;17.30;99.90;;;;;;5000890;28;20431;-51
2022/07/18 05:15:18;;;;;;;3.57;2.57;;;17.40;99.90;;;;;;5001321;28;20530;-47
2022/07/18 05:17:46;;;;;;;15.40;4.67;;;17.50;99.90;;;;;;5000932;28;20449;-52
2022/07/18 05:20:16;;;;;;;2.43;2.20;;;17.60;99.90;;;;;;5001170;28;20553;-48
2022/07/18 05:22:43;;;;;;;8.67;5.03;;;17.70;99.90;;;;;;5001089;28;20802;-54
2022/07/18 05:25:12;;;;;;;5.50;4.00;;;17.80;99.90;;;;;;5001428;28;20457;-50
2022/07/18 05:27:40;;;;;;;5.07;3.17;;;18.20;99.90;;;;;;5000807;28;20446;-52
2022/07/18 05:30:10;;;;;;;16.73;4.30;;;18.60;99.90;;;;;;5001006;28;20454;-49
2022/07/18 05:32:42;;;;;;;40.80;8.63;;;19.00;99.90;;;;;;5000415;28;20439;-48
2022/07/18 05:35:11;;;;;;;13.37;4.70;;;19.50;99.90;;;;;;5001114;28;20506;-54
2022/07/18 05:37:39;;;;;;;7.67;3.47;;;19.90;99.90;;;;;;5001351;28;20736;-51
2022/07/18 05:40:09;;;;;;;5.27;3.60;;;20.20;99.90;;;;;;5000764;28;20506;-46
2022/07/18 05:42:36;;;;;;;6.27;3.00;;;20.50;99.90;;;;;;4999406;28;20410;-48
2022/07/18 05:45:20;;;;;;;3.60;3.13;;;20.80;99.90;;;;;;5000997;28;20406;-49
2022/07/18 05:47:47;;;;;;;11.03;3.03;;;20.90;99.90;;;;;;4993818;28;20409;-50
2022/07/18 05:50:14;;;;;;;4.60;2.47;;;21.30;99.90;;;;;;5001251;28;20437;-55
2022/07/18 05:52:42;;;;;;;4.10;3.13;;;21.40;99.90;;;;;;5000918;28;20750;-52
2022/07/18 05:55:09;;;;;;;3.33;2.73;;;21.40;99.90;;;;;;5000805;28;20762;-48
2022/07/18 05:57:36;;;;;;;7.80;2.97;;;21.40;99.90;;;;;;5000946;28;20765;-51
2022/07/18 06:00:07;;;;;;;3.07;2.50;;;21.40;99.90;;;;;;5000749;28;20446;-51
2022/07/18 06:02:35;;;;;;;2.83;2.40;;;21.40;99.90;;;;;;4981899;28;20460;-50
2022/07/18 06:05:06;;;;;;;4.23;1.90;;;21.30;99.90;;;;;;5000267;28;20721;-53
2022/07/18 06:07:48;;;;;;;5.50;3.23;;;21.30;99.90;;;;;;4994669;28;20402;-51
2022/07/18 06:10:15;;;;;;;2.50;2.13;;;21.20;99.90;;;;;;4999928;28;20482;-50
2022/07/18 06:12:42;;;;;;;7.60;2.70;;;20.90;99.90;;;;;;5000526;28;20444;-54
2022/07/18 06:15:10;;;;;;;2.93;2.20;;;20.80;99.90;;;;;;5000485;28;20411;-54
2022/07/18 06:17:37;;;;;;;2.07;1.90;;;20.80;99.90;;;;;;5001095;28;20469;-50
2022/07/18 06:20:07;;;;;;;2.93;2.20;;;20.70;99.90;;;;;;5000638;28;20940;-52
2022/07/18 06:22:35;;;;;;;5.27;1.87;;;20.70;99.90;;;;;;5000527;28;20408;-47
2022/07/18 06:25:04;;;;;;;6.20;2.10;;;21.00;99.90;;;;;;5000615;28;20821;-53
2022/07/18 06:27:31;;;;;;;6.40;2.27;;;21.70;99.90;;;;;;4999769;28;20442;-51
2022/07/18 06:29:59;;;;;;;2.57;2.17;;;22.30;99.90;;;;;;5000406;28;20420;-53
2022/07/18 06:32:26;;;;;;;3.97;2.37;;;23.40;99.90;;;;;;4999761;28;20487;-54
2022/07/18 06:34:53;;;;;;;6.43;2.07;;;23.70;99.90;;;;;;5000145;28;20440;-53
2022/07/18 06:37:21;;;;;;;3.53;2.60;;;23.80;99.90;;;;;;4999523;28;20455;-53
2022/07/18 06:39:48;;;;;;;3.90;2.50;;;24.10;99.90;;;;;;5000071;28;20859;-51
2022/07/18 06:42:15;;;;;;;4.67;1.90;;;24.10;99.90;;;;;;4999462;28;20732;-52
2022/07/18 06:44:42;;;;;;;4.40;2.70;;;24.40;99.90;;;;;;5000185;28;20784;-50
2022/07/18 06:47:10;;;;;;;3.27;2.10;;;24.60;99.90;;;;;;5000301;28;20414;-54
2022/07/18 06:49:38;;;;;;;3.47;1.63;;;24.70;99.90;;;;;;5000232;28;20436;-52
2022/07/18 06:52:05;;;;;;;2.37;1.80;;;24.80;99.90;;;;;;4999715;28;20486;-54
2022/07/18 06:54:35;;;;;;;6.87;2.77;;;25.40;99.90;;;;;;4999674;28;20545;-53
2022/07/18 06:57:06;;;;;;;2.73;1.97;;;25.80;99.60;;;;;;4999643;28;20452;-52
2022/07/18 06:59:34;;;;;;;2.10;2.00;;;26.20;99.30;;;;;;4998168;28;20466;-52
2022/07/18 07:02:02;;;;;;;4.33;1.80;;;27.10;95.00;;;;;;4996965;28;20413;-54
2022/07/18 07:04:29;;;;;;;1.97;1.70;;;28.30;92.10;;;;;;4997928;28;20789;-50
2022/07/18 07:06:57;;;;;;;1.83;1.50;;;29.10;88.30;;;;;;4998115;28;20496;-53
2022/07/18 07:09:24;;;;;;;1.80;1.50;;;29.40;84.60;;;;;;4997885;28;20432;-55
2022/07/18 07:11:52;;;;;;;2.43;1.70;;;29.90;79.50;;;;;;4999227;28;20442;-53
2022/07/18 07:14:19;;;;;;;4.40;2.90;;;30.00;80.60;;;;;;4998663;28;20523;-50
2022/07/18 07:16:46;;;;;;;4.87;1.60;;;30.30;77.50;;;;;;4999270;28;20480;-54
2022/07/18 07:19:13;;;;;;;3.40;1.30;;;32.00;70.40;;;;;;4998821;28;20439;-50
2022/07/18 07:21:40;;;;;;;2.67;1.43;;;33.50;63.80;;;;;;5000225;28;20519;-54
2022/07/18 07:24:08;;;;;;;1.57;1.47;;;34.60;58.80;;;;;;4999909;28;20456;-52
2022/07/18 07:26:35;;;;;;;7.93;2.13;;;35.90;55.90;;;;;;4999306;28;20793;-53
2022/07/18 07:29:02;;;;;;;2.53;1.20;;;37.60;52.50;;;;;;4999233;28;20504;-53
2022/07/18 07:31:29;;;;;;;1.50;1.40;;;39.10;47.70;;;;;;4999357;28;20534;-55
2022/07/18 07:33:57;;;;;;;2.80;1.47;;;39.20;45.30;;;;;;4999834;28;20583;-55
2022/07/18 07:36:32;;;;;;;4.13;2.07;;;39.70;44.70;;;;;;4999417;28;20647;-51
2022/07/18 07:38:59;;;;;;;1.77;1.60;;;41.30;42.80;;;;;;4999956;28;20531;-55
2022/07/18 07:41:27;;;;;;;3.57;1.40;;;41.40;41.20;;;;;;4999917;28;20491;-52
2022/07/18 07:43:54;;;;;;;1.77;1.30;;;42.40;39.20;;;;;;4995013;28;20659;-50
2022/07/18 07:46:21;;;;;;;4.80;1.90;;;42.10;38.00;;;;;;4999692;28;20766;-53
2022/07/18 07:48:48;;;;;;;2.07;1.87;;;42.20;38.00;;;;;;4999600;28;20431;-51
2022/07/18 07:51:16;;;;;;;1.67;1.57;;;40.60;38.40;;;;;;4999839;28;20462;-54
2022/07/18 07:53:50;;;;;;;3.53;1.47;;;42.00;38.10;;;;;;4994907;28;20462;-49
2022/07/18 07:56:19;;;;;;;1.53;1.30;;;42.20;36.90;;;;;;4999491;28;20511;-55
2022/07/18 07:58:47;;;;;;;1.67;1.23;;;41.40;37.30;;;;;;4993579;28;20440;-54
2022/07/18 08:01:17;;;;;;;1.70;1.60;;;39.90;37.80;;;;;;4999847;28;20485;-54
2022/07/18 08:03:46;;;;;;;2.30;1.23;;;41.30;37.50;;;;;;5000114;28;20475;-54
2022/07/18 08:06:13;;;;;;;4.30;2.20;;;42.90;36.90;;;;;;5000220;28;20506;-51
2022/07/18 08:08:40;;;;;;;2.00;1.43;;;43.30;35.40;;;;;;4999955;28;20558;-49
2022/07/18 08:11:08;;;;;;;4.30;2.40;;;43.00;35.90;;;;;;4999730;28;20475;-52
2022/07/18 08:13:35;;;;;;;2.30;1.30;;;43.20;35.70;;;;;;4999807;28;20472;-52
2022/07/18 08:16:04;;;;;;;1.53;1.40;;;43.60;35.10;;;;;;4999776;28;20482;-53
2022/07/18 08:18:31;;;;;;;2.87;1.63;;;43.70;34.50;;;;;;4999257;28;20743;-53
2022/07/18 08:20:58;;;;;;;1.60;1.20;;;42.30;34.50;;;;;;4999810;28;20527;-51
2022/07/18 08:23:25;;;;;;;1.70;1.60;;;39.40;37.10;;;;;;4998863;28;20458;-50
2022/07/18 08:25:52;;;;;;;2.97;2.50;;;40.60;36.60;;;;;;5001021;28;20439;-52
2022/07/18 08:28:19;;;;;;;1.40;1.30;;;41.20;36.00;;;;;;5003128;28;20734;-51
2022/07/18 08:30:46;;;;;;;1.50;1.40;;;42.20;35.70;;;;;;4996069;28;20480;-54
2022/07/18 08:33:14;;;;;;;2.03;1.40;;;42.70;35.10;;;;;;5003187;28;20447;-53
2022/07/18 08:35:42;;;;;;;1.60;1.50;;;42.90;35.20;;;;;;5003440;28;20478;-53
2022/07/18 08:38:09;;;;;;;1.87;1.67;;;43.50;34.50;;;;;;5003270;28;20626;-54
2022/07/18 08:40:38;;;;;;;3.23;1.50;;;44.20;33.80;;;;;;5003163;28;20445;-52
2022/07/18 08:43:05;;;;;;;4.63;2.00;;;45.00;33.30;;;;;;5003446;28;20471;-55
2022/07/18 08:45:48;;;;;;;3.17;1.87;;;45.30;32.50;;;;;;5002080;28;20435;-53
2022/07/18 08:48:17;;;;;;;2.40;1.70;;;45.50;32.40;;;;;;5002871;28;20458;-53
2022/07/18 08:50:47;;;;;;;2.03;1.80;;;44.80;33.00;;;;;;5003232;28;20834;-54
2022/07/18 08:53:16;;;;;;;1.70;1.60;;;45.40;32.50;;;;;;5002922;28;20475;-50
2022/07/18 08:55:44;;;;;;;2.70;1.77;;;45.60;31.80;;;;;;5003195;28;20431;-50
2022/07/18 08:58:14;;;;;;;2.80;1.77;;;46.10;31.50;;;;;;5002671;28;20450;-52
2022/07/18 09:01:01;;;;;;;3.03;1.50;;;47.00;31.10;;;;;;5001072;28;20606;-55
2022/07/18 09:03:29;;;;;;;3.63;1.70;;;47.30;30.80;;;;;;5002583;28;20530;-55
2022/07/18 09:06:23;;;;;;;1.57;1.47;;;46.00;31.30;;;;;;5003302;28;20510;-54
2022/07/18 09:08:59;;;;;;;2.70;1.80;;;45.10;31.10;;;;;;4998782;28;20505;-55
2022/07/18 09:11:27;;;;;;;2.10;1.60;;;43.50;32.00;;;;;;5002330;28;20497;-51
2022/07/18 09:14:30;;;;;;;6.23;2.20;;;41.90;33.00;;;;;;5002559;28;20838;-51
2022/07/18 09:17:24;;;;;;;1.57;1.47;;;41.00;33.80;;;;;;5001665;28;20456;-49
2022/07/18 09:20:03;;;;;;;2.27;1.90;;;40.90;33.80;;;;;;4991135;28;20435;-52
2022/07/18 09:22:35;;;;;;;2.87;2.00;;;38.80;35.40;;;;;;5002761;28;20495;-52
2022/07/18 09:25:14;;;;;;;2.23;2.00;;;39.80;35.50;;;;;;5002501;28;20435;-56
2022/07/18 09:27:47;;;;;;;1.47;1.37;;;40.60;34.60;;;;;;5002737;28;20439;-52
2022/07/18 09:30:35;;;;;;;1.30;1.20;;;41.30;33.90;;;;;;5001855;28;20505;-53
2022/07/18 09:33:02;;;;;;;3.90;2.20;;;41.20;34.10;;;;;;4996770;28;20523;-51
2022/07/18 09:35:35;;;;;;;2.20;1.77;;;41.60;34.30;;;;;;5001833;28;20502;-51
2022/07/18 09:38:04;;;;;;;1.27;1.17;;;42.00;33.90;;;;;;5000988;28;20821;-51
2022/07/18 09:40:40;;;;;;;3.80;1.17;;;40.30;34.90;;;;;;5001635;28;20435;-51
2022/07/18 09:43:15;;;;;;;2.03;1.53;;;37.30;37.90;;;;;;5002250;28;20518;-56
2022/07/18 09:45:44;;;;;;;1.90;1.33;;;34.80;40.10;;;;;;5001926;28;20433;-51
2022/07/18 09:48:20;;;;;;;1.40;1.30;;;32.90;42.10;;;;;;5001806;28;20440;-53
2022/07/18 09:50:58;;;;;;;2.50;1.43;;;31.50;43.50;;;;;;4999522;28;20840;-55
2022/07/18 09:53:29;;;;;;;1.87;1.70;;;30.80;44.70;;;;;;5001538;28;20509;-54
2022/07/18 09:56:03;;;;;;;2.00;1.27;;;30.40;45.50;;;;;;5001686;28;20439;-49
2022/07/18 09:58:36;;;;;;;2.37;1.70;;;30.00;46.30;;;;;;5002070;28;20442;-52
2022/07/18 10:01:05;;;;;;;2.03;1.00;;;29.50;46.80;;;;;;5001438;28;20448;-51
2022/07/18 10:03:33;;;;;;;1.50;1.40;;;28.60;47.00;;;;;;5001499;28;20471;-53
2022/07/18 10:06:01;;;;;;;3.10;1.30;;;28.40;48.30;;;;;;5001544;28;20464;-52
2022/07/18 10:08:32;;;;;;;2.63;1.90;;;28.20;48.50;;;;;;5001952;28;20436;-50
2022/07/18 10:11:02;;;;;;;2.80;2.30;;;28.20;48.50;;;;;;5001446;28;20614;-49
2022/07/18 10:13:31;;;;;;;2.37;1.50;;;28.00;48.70;;;;;;5001073;28;20527;-50
2022/07/18 10:16:01;;;;;;;1.40;1.30;;;27.90;49.00;;;;;;5001611;28;20435;-50
2022/07/18 10:18:32;;;;;;;2.00;1.20;;;27.30;49.30;;;;;;5001261;28;20643;-51
2022/07/18 10:21:02;;;;;;;1.60;1.50;;;27.10;49.60;;;;;;5001518;28;20423;-55
2022/07/18 10:23:42;;;;;;;1.30;1.20;;;27.10;49.60;;;;;;5000840;28;20503;-51
2022/07/18 10:26:21;;;;;;;2.40;1.77;;;27.20;49.80;;;;;;5001481;28;20464;-53
2022/07/18 10:28:55;;;;;;;3.43;1.50;;;27.20;49.60;;;;;;4999726;28;20417;-51
2022/07/18 10:31:27;;;;;;;1.27;1.17;;;27.10;49.70;;;;;;5000773;28;20480;-52
2022/07/18 10:34:10;;;;;;;2.90;1.87;;;27.20;50.40;;;;;;5001249;28;20941;-53
2022/07/18 10:37:04;;;;;;;1.90;1.40;;;27.50;51.00;;;;;;5000986;28;20753;-53
2022/07/18 10:39:37;;;;;;;2.10;1.90;;;27.80;49.60;;;;;;4998782;28;20444;-53
2022/07/18 10:42:04;;;;;;;1.73;1.40;;;28.00;49.50;;;;;;5000774;28;20438;-51
2022/07/18 10:44:34;;;;;;;2.47;2.23;;;28.10;48.90;;;;;;5000304;28;20542;-49
2022/07/18 10:47:12;;;;;;;1.63;1.33;;;28.00;48.60;;;;;;5000882;28;20413;-50
2022/07/18 10:49:52;;;;;;;4.43;1.90;;;27.90;49.90;;;;;;5000054;28;20417;-53
2022/07/18 10:52:27;;;;;;;2.40;1.63;;;27.90;49.50;;;;;;5000408;28;20461;-48
2022/07/18 10:55:06;;;;;;;3.00;1.67;;;27.90;49.60;;;;;;4993702;28;20852;-48
2022/07/18 10:57:38;;;;;;;1.53;1.43;;;27.90;49.20;;;;;;5000668;28;20462;-52
2022/07/18 11:00:23;;;;;;;2.03;1.87;;;27.80;48.90;;;;;;5000967;28;20477;-48
2022/07/18 11:03:10;;;;;;;1.97;1.87;;;27.80;49.00;;;;;;4999459;28;20426;-49
2022/07/18 11:05:52;;;;;;;2.40;1.70;;;27.90;50.00;;;;;;5000464;28;20450;-52
2022/07/18 11:08:24;;;;;;;1.50;1.40;;;28.00;51.20;;;;;;5000351;28;20608;-50
2022/07/18 11:10:54;;;;;;;2.90;1.73;;;28.10;50.00;;;;;;4992777;28;20546;-48
2022/07/18 11:13:28;;;;;;;2.30;1.63;;;28.00;50.30;;;;;;5000436;28;20451;-50
2022/07/18 11:16:10;;;;;;;2.03;1.50;;;28.00;51.10;;;;;;5000386;28;20443;-48
2022/07/18 11:18:41;;;;;;;1.77;1.23;;;27.80;50.90;;;;;;5000171;28;20502;-53
2022/07/18 11:21:27;;;;;;;2.00;1.70;;;27.70;51.40;;;;;;5000043;28;20677;-51
2022/07/18 11:24:08;;;;;;;4.30;1.70;;;27.70;51.70;;;;;;4994394;28;20455;-49
2022/07/18 11:26:44;;;;;;;4.17;1.73;;;27.80;51.10;;;;;;5000183;28;20450;-55
2022/07/18 11:29:14;;;;;;;1.30;1.20;;;27.90;51.50;;;;;;5000199;28;20542;-52
2022/07/18 11:31:50;;;;;;;1.43;1.33;;;28.10;52.60;;;;;;4999827;28;20495;-49
2022/07/18 11:34:19;;;;;;;4.20;1.67;;;28.30;51.80;;;;;;5000180;28;20482;-48
2022/07/18 11:37:02;;;;;;;3.20;1.50;;;28.40;51.60;;;;;;4996565;28;20417;-49
2022/07/18 11:39:32;;;;;;;2.70;1.50;;;28.30;51.90;;;;;;5000112;28;20693;-56
2022/07/18 11:42:01;;;;;;;1.33;1.13;;;28.40;51.70;;;;;;4999895;28;20515;-52
2022/07/18 11:44:28;;;;;;;1.73;1.17;;;28.40;51.60;;;;;;4999850;28;20478;-49
2022/07/18 11:47:21;;;;;;;1.73;1.40;;;28.40;52.00;;;;;;5000051;28;20444;-51
2022/07/18 11:49:56;;;;;;;1.97;1.60;;;28.40;51.60;;;;;;4990365;28;20442;-51
2022/07/18 11:52:23;;;;;;;2.50;1.67;;;28.40;51.30;;;;;;4999278;28;20830;-53
2022/07/18 11:55:00;;;;;;;7.63;2.10;;;28.20;51.60;;;;;;5000529;28;20502;-51
2022/07/18 11:57:29;;;;;;;4.20;1.50;;;28.10;52.50;;;;;;4999601;28;20796;-53
2022/07/18 11:59:56;;;;;;;1.70;1.60;;;28.20;52.90;;;;;;4999688;28;20431;-51
2022/07/18 12:03:01;;;;;;;1.90;1.80;;;28.30;52.80;;;;;;4999415;28;20459;-53
2022/07/18 12:05:36;;;;;;;1.93;1.70;;;28.40;52.10;;;;;;4997556;28;20443;-55
2022/07/18 12:08:38;;;;;;;3.67;2.03;;;28.30;52.70;;;;;;4999628;28;20444;-53
2022/07/18 12:11:14;;;;;;;2.80;1.37;;;28.30;52.30;;;;;;4965890;28;20463;-51
2022/07/18 12:13:47;;;;;;;2.07;1.80;;;28.30;52.40;;;;;;4998983;28;20585;-49
2022/07/18 12:16:33;;;;;;;3.40;1.73;;;28.40;53.00;;;;;;4999597;28;20695;-52
2022/07/18 12:19:10;;;;;;;2.70;2.50;;;28.30;52.50;;;;;;4993657;28;20529;-53
2022/07/18 12:21:50;;;;;;;2.80;1.70;;;28.40;52.60;;;;;;4995887;28;20435;-54
2022/07/18 12:24:41;;;;;;;2.50;1.40;;;28.50;52.40;;;;;;4999870;28;20434;-52
2022/07/18 12:27:25;;;;;;;1.67;1.33;;;28.60;52.00;;;;;;4997962;28;20415;-52
2022/07/18 12:29:55;;;;;;;1.33;1.27;;;28.70;52.10;;;;;;4993615;28;20435;-50
2022/07/18 12:32:24;;;;;;;1.27;1.10;;;28.50;52.10;;;;;;4996111;28;20483;-50
2022/07/18 12:35:02;;;;;;;1.70;1.60;;;28.40;52.60;;;;;;4999689;28;20440;-48
2022/07/18 12:37:30;;;;;;;2.00;1.70;;;28.20;52.70;;;;;;4997278;28;20439;-48
2022/07/18 12:40:06;;;;;;;2.23;1.33;;;28.00;52.70;;;;;;4999438;28;20485;-50
2022/07/18 12:43:07;;;;;;;1.37;1.27;;;27.90;52.90;;;;;;4992391;28;20864;-50
2022/07/18 12:45:37;;;;;;;3.80;1.47;;;28.00;53.50;;;;;;4999906;28;20523;-52
2022/07/18 12:48:07;;;;;;;1.17;1.10;;;28.20;53.80;;;;;;4999691;28;20614;-53
2022/07/18 12:50:35;;;;;;;3.60;1.70;;;28.40;53.30;;;;;;4998986;28;20510;-53
2022/07/18 12:53:03;;;;;;;2.97;1.70;;;28.50;52.90;;;;;;4999476;28;20522;-49
2022/07/18 12:55:30;;;;;;;2.57;2.00;;;28.50;52.30;;;;;;4998896;28;20740;-52
2022/07/18 12:58:00;;;;;;;1.00;1.00;;;28.50;52.80;;;;;;4999327;28;20800;-50
2022/07/18 13:00:29;;;;;;;1.80;1.70;;;28.40;52.40;;;;;;4998951;28;20448;-50
2022/07/18 13:02:58;;;;;;;1.97;1.60;;;28.30;52.90;;;;;;4999361;28;20455;-52
2022/07/18 13:05:27;;;;;;;4.10;1.47;;;28.40;52.40;;;;;;4999063;28;20435;-52